sensor_id;sensor_type;location;lat;lon;timestamp;temperature;humidity
39103;DHT22;24847;48.218;16.414;2022-09-09T00:03:44;18.00;99.90
39103;DHT22;24847;48.218;16.414;2022-09-09T00:08:59;18.10;99.90
39103;DHT22;24847;48.218;16.414;2022-09-09T00:14:12;18.30;99.90
39103;DHT22;24847;48.218;16.414;2022-09-09T00:19:24;18.00;99.90
39103;DHT22;24847;48.218;16.414;2022-09-09T00:24:35;18.00;99.90
39103;DHT22;24847;48.218;16.414;2022-09-09T00:29:43;17.80;99.90
39103;DHT22;24847;48.218;16.414;2022-09-09T00:34:49;17.50;99.90
39103;DHT22;24847;48.218;16.414;2022-09-09T00:39:57;17.40;99.90
39103;DHT22;24847;48.218;16.414;2022-09-09T00:45:17;17.60;99.90
39103;DHT22;24847;48.218;16.414;2022-09-09T00:50:45;17.40;99.90
39103;DHT22;24847;48.218;16.414;2022-09-09T00:55:56;17.30;99.90
39103;DHT22;24847;48.218;16.414;2022-09-09T01:01:05;17.40;99.90
39103;DHT22;24847;48.218;16.414;2022-09-09T01:06:15;17.50;99.90
39103;DHT22;24847;48.218;16.414;2022-09-09T01:11:21;17.60;99.90
39103;DHT22;24847;48.218;16.414;2022-09-09T01:16:29;17.60;99.90
39103;DHT22;24847;48.218;16.414;2022-09-09T01:21:37;17.60;99.90
39103;DHT22;24847;48.218;16.414;2022-09-09T01:26:45;17.60;99.90
39103;DHT22;24847;48.218;16.414;2022-09-09T01:31:54;17.40;99.90
39103;DHT22;24847;48.218;16.414;2022-09-09T01:37:00;17.40;99.90
39103;DHT22;24847;48.218;16.414;2022-09-09T01:42:09;17.60;99.90
39103;DHT22;24847;48.218;16.414;2022-09-09T01:47:12;17.60;99.90
39103;DHT22;24847;48.218;16.414;2022-09-09T01:52:14;17.40;99.90
39103;DHT22;24847;48.218;16.414;2022-09-09T01:57:20;17.60;99.90
39103;DHT22;24847;48.218;16.414;2022-09-09T02:02:27;17.10;99.90
39103;DHT22;24847;48.218;16.414;2022-09-09T02:07:38;16.80;99.90
39103;DHT22;24847;48.218;16.414;2022-09-09T02:12:47;17.00;99.90
39103;DHT22;24847;48.218;16.414;2022-09-09T02:17:52;16.80;99.90
39103;DHT22;24847;48.218;16.414;2022-09-09T02:22:56;17.20;99.90
39103;DHT22;24847;48.218;16.414;2022-09-09T02:28:01;17.10;99.90
39103;DHT22;24847;48.218;16.414;2022-09-09T02:33:05;17.20;99.90
39103;DHT22;24847;48.218;16.414;2022-09-09T02:38:13;17.20;99.90
39103;DHT22;24847;48.218;16.414;2022-09-09T02:43:18;16.80;99.90
39103;DHT22;24847;48.218;16.414;2022-09-09T02:48:28;16.70;99.90
39103;DHT22;24847;48.218;16.414;2022-09-09T02:53:38;16.50;99.90
39103;DHT22;24847;48.218;16.414;2022-09-09T02:58:45;16.40;99.90
39103;DHT22;24847;48.218;16.414;2022-09-09T03:03:47;16.40;99.90
39103;DHT22;24847;48.218;16.414;2022-09-09T03:08:50;16.40;99.90
39103;DHT22;24847;48.218;16.414;2022-09-09T03:13:54;16.00;99.90
39103;DHT22;24847;48.218;16.414;2022-09-09T03:18:57;15.80;99.90
39103;DHT22;24847;48.218;16.414;2022-09-09T03:23:59;15.90;99.90
39103;DHT22;24847;48.218;16.414;2022-09-09T03:29:05;15.90;99.90
39103;DHT22;24847;48.218;16.414;2022-09-09T03:34:07;16.10;99.90
39103;DHT22;24847;48.218;16.414;2022-09-09T03:39:10;15.70;99.90
39103;DHT22;24847;48.218;16.414;2022-09-09T03:44:14;15.80;99.90
39103;DHT22;24847;48.218;16.414;2022-09-09T03:49:16;15.90;99.90
39103;DHT22;24847;48.218;16.414;2022-09-09T03:54:20;15.70;99.90
39103;DHT22;24847;48.218;16.414;2022-09-09T03:59:24;15.70;99.90
39103;DHT22;24847;48.218;16.414;2022-09-09T04:04:27;15.60;99.90
39103;DHT22;24847;48.218;16.414;2022-09-09T04:09:29;15.60;99.90
39103;DHT22;24847;48.218;16.414;2022-09-09T04:14:32;15.80;99.90
39103;DHT22;24847;48.218;16.414;2022-09-09T04:19:35;15.40;99.90
39103;DHT22;24847;48.218;16.414;2022-09-09T04:24:37;15.50;99.90
39103;DHT22;24847;48.218;16.414;2022-09-09T04:29:40;15.60;99.90
39103;DHT22;24847;48.218;16.414;2022-09-09T04:34:42;15.40;99.90
39103;DHT22;24847;48.218;16.414;2022-09-09T04:40:09;15.50;99.90
39103;DHT22;24847;48.218;16.414;2022-09-09T04:45:37;15.40;99.90
39103;DHT22;24847;48.218;16.414;2022-09-09T04:51:05;15.50;99.90
39103;DHT22;24847;48.218;16.414;2022-09-09T04:56:10;15.50;99.90
39103;DHT22;24847;48.218;16.414;2022-09-09T05:01:17;15.50;99.90
39103;DHT22;24847;48.218;16.414;2022-09-09T05:06:21;15.80;99.90
39103;DHT22;24847;48.218;16.414;2022-09-09T05:11:25;15.90;99.90
39103;DHT22;24847;48.218;16.414;2022-09-09T05:16:29;16.00;99.90
39103;DHT22;24847;48.218;16.414;2022-09-09T05:21:32;16.00;99.90
39103;DHT22;24847;48.218;16.414;2022-09-09T05:26:34;16.20;99.90
39103;DHT22;24847;48.218;16.414;2022-09-09T05:31:38;16.20;99.90
39103;DHT22;24847;48.218;16.414;2022-09-09T05:36:42;16.20;99.90
39103;DHT22;24847;48.218;16.414;2022-09-09T05:41:45;16.30;99.90
39103;DHT22;24847;48.218;16.414;2022-09-09T05:46:57;16.60;99.90
39103;DHT22;24847;48.218;16.414;2022-09-09T05:52:00;16.60;99.90
39103;DHT22;24847;48.218;16.414;2022-09-09T05:57:04;16.80;99.90
39103;DHT22;24847;48.218;16.414;2022-09-09T06:02:08;16.80;99.90
39103;DHT22;24847;48.218;16.414;2022-09-09T06:07:11;16.90;99.90
39103;DHT22;24847;48.218;16.414;2022-09-09T06:12:15;17.00;99.90
39103;DHT22;24847;48.218;16.414;2022-09-09T06:17:19;17.00;99.90
39103;DHT22;24847;48.218;16.414;2022-09-09T06:22:21;17.00;99.90
39103;DHT22;24847;48.218;16.414;2022-09-09T06:27:23;16.70;99.90
39103;DHT22;24847;48.218;16.414;2022-09-09T06:32:28;16.80;99.90
39103;DHT22;24847;48.218;16.414;2022-09-09T06:37:30;16.60;99.90
39103;DHT22;24847;48.218;16.414;2022-09-09T06:42:32;16.80;99.90
39103;DHT22;24847;48.218;16.414;2022-09-09T06:47:36;16.90;99.90
39103;DHT22;24847;48.218;16.414;2022-09-09T06:52:38;17.20;99.90
39103;DHT22;24847;48.218;16.414;2022-09-09T06:57:40;17.60;99.90
39103;DHT22;24847;48.218;16.414;2022-09-09T07:02:43;17.50;99.90
39103;DHT22;24847;48.218;16.414;2022-09-09T07:07:46;17.80;99.90
39103;DHT22;24847;48.218;16.414;2022-09-09T07:12:50;17.60;99.90
39103;DHT22;24847;48.218;16.414;2022-09-09T07:17:55;17.90;99.90
39103;DHT22;24847;48.218;16.414;2022-09-09T07:22:57;18.70;99.90
39103;DHT22;24847;48.218;16.414;2022-09-09T07:28:00;19.20;99.90
39103;DHT22;24847;48.218;16.414;2022-09-09T07:33:04;19.50;99.90
39103;DHT22;24847;48.218;16.414;2022-09-09T07:38:06;19.10;99.90
39103;DHT22;24847;48.218;16.414;2022-09-09T07:43:08;19.00;99.90
39103;DHT22;24847;48.218;16.414;2022-09-09T07:48:12;20.10;99.90
39103;DHT22;24847;48.218;16.414;2022-09-09T07:53:15;20.40;99.90
39103;DHT22;24847;48.218;16.414;2022-09-09T07:58:17;20.80;99.90
39103;DHT22;24847;48.218;16.414;2022-09-09T08:03:20;20.30;99.90
39103;DHT22;24847;48.218;16.414;2022-09-09T08:08:23;20.10;99.90
39103;DHT22;24847;48.218;16.414;2022-09-09T08:13:25;19.80;99.90
39103;DHT22;24847;48.218;16.414;2022-09-09T08:18:29;19.50;99.90
39103;DHT22;24847;48.218;16.414;2022-09-09T08:23:31;19.40;99.90
39103;DHT22;24847;48.218;16.414;2022-09-09T08:28:33;19.40;99.90
39103;DHT22;24847;48.218;16.414;2022-09-09T08:33:37;19.90;99.90
39103;DHT22;24847;48.218;16.414;2022-09-09T08:38:39;21.30;99.90
39103;DHT22;24847;48.218;16.414;2022-09-09T08:43:43;22.70;99.90
39103;DHT22;24847;48.218;16.414;2022-09-09T08:48:55;22.00;99.90
39103;DHT22;24847;48.218;16.414;2022-09-09T08:54:02;23.10;99.90
39103;DHT22;24847;48.218;16.414;2022-09-09T08:59:07;23.00;99.90
39103;DHT22;24847;48.218;16.414;2022-09-09T09:10:00;23.20;99.90
39103;DHT22;24847;48.218;16.414;2022-09-09T09:15:10;24.70;99.90
39103;DHT22;24847;48.218;16.414;2022-09-09T09:20:26;26.20;99.90
39103;DHT22;24847;48.218;16.414;2022-09-09T09:25:35;25.20;99.90
39103;DHT22;24847;48.218;16.414;2022-09-09T09:30:42;26.00;99.90
39103;DHT22;24847;48.218;16.414;2022-09-09T09:35:50;26.40;99.20
39103;DHT22;24847;48.218;16.414;2022-09-09T09:40:53;26.90;98.90
39103;DHT22;24847;48.218;16.414;2022-09-09T09:45:59;27.30;97.80
39103;DHT22;24847;48.218;16.414;2022-09-09T09:51:06;25.60;99.90
39103;DHT22;24847;48.218;16.414;2022-09-09T09:56:14;25.50;99.90
39103;DHT22;24847;48.218;16.414;2022-09-09T10:01:21;24.80;99.90
39103;DHT22;24847;48.218;16.414;2022-09-09T10:06:35;24.00;99.90
39103;DHT22;24847;48.218;16.414;2022-09-09T10:11:46;24.70;99.90
39103;DHT22;24847;48.218;16.414;2022-09-09T10:17:07;25.30;99.90
39103;DHT22;24847;48.218;16.414;2022-09-09T10:22:26;25.10;99.00
39103;DHT22;24847;48.218;16.414;2022-09-09T10:27:36;24.30;99.90
39103;DHT22;24847;48.218;16.414;2022-09-09T10:32:48;25.30;99.90
39103;DHT22;24847;48.218;16.414;2022-09-09T10:38:12;24.80;99.90
39103;DHT22;24847;48.218;16.414;2022-09-09T10:43:28;24.10;99.90
39103;DHT22;24847;48.218;16.414;2022-09-09T10:48:58;24.50;99.90
39103;DHT22;24847;48.218;16.414;2022-09-09T10:54:28;24.10;99.90
39103;DHT22;24847;48.218;16.414;2022-09-09T10:59:38;24.10;99.90
39103;DHT22;24847;48.218;16.414;2022-09-09T11:04:47;23.80;99.90
39103;DHT22;24847;48.218;16.414;2022-09-09T11:09:56;23.90;99.90
39103;DHT22;24847;48.218;16.414;2022-09-09T11:15:05;23.90;99.90
39103;DHT22;24847;48.218;16.414;2022-09-09T11:20:12;23.70;99.90
39103;DHT22;24847;48.218;16.414;2022-09-09T11:25:19;23.70;99.90
39103;DHT22;24847;48.218;16.414;2022-09-09T11:30:25;23.50;99.90
39103;DHT22;24847;48.218;16.414;2022-09-09T11:35:41;23.00;99.90
39103;DHT22;24847;48.218;16.414;2022-09-09T11:40:57;23.30;99.90
39103;DHT22;24847;48.218;16.414;2022-09-09T11:46:02;23.70;99.90
39103;DHT22;24847;48.218;16.414;2022-09-09T11:51:06;23.60;99.90
39103;DHT22;24847;48.218;16.414;2022-09-09T11:56:12;23.70;99.90
39103;DHT22;24847;48.218;16.414;2022-09-09T12:01:27;23.70;99.90
39103;DHT22;24847;48.218;16.414;2022-09-09T12:06:32;23.50;99.90
39103;DHT22;24847;48.218;16.414;2022-09-09T12:11:44;23.50;99.90
39103;DHT22;24847;48.218;16.414;2022-09-09T12:16:46;23.30;99.80
39103;DHT22;24847;48.218;16.414;2022-09-09T12:21:57;23.70;99.80
39103;DHT22;24847;48.218;16.414;2022-09-09T12:27:07;23.90;98.10
39103;DHT22;24847;48.218;16.414;2022-09-09T12:32:15;24.10;98.30
39103;DHT22;24847;48.218;16.414;2022-09-09T12:37:26;23.90;98.30
39103;DHT22;24847;48.218;16.414;2022-09-09T12:42:32;24.00;98.30
39103;DHT22;24847;48.218;16.414;2022-09-09T12:47:38;23.80;98.80
39103;DHT22;24847;48.218;16.414;2022-09-09T12:52:43;23.80;98.50
39103;DHT22;24847;48.218;16.414;2022-09-09T12:57:49;23.80;99.00
39103;DHT22;24847;48.218;16.414;2022-09-09T13:02:53;23.70;98.30
39103;DHT22;24847;48.218;16.414;2022-09-09T13:08:01;23.90;98.10
39103;DHT22;24847;48.218;16.414;2022-09-09T13:13:13;24.00;98.20
39103;DHT22;24847;48.218;16.414;2022-09-09T13:18:19;23.80;97.90
39103;DHT22;24847;48.218;16.414;2022-09-09T13:23:26;23.80;97.70
39103;DHT22;24847;48.218;16.414;2022-09-09T13:28:31;23.60;97.20
39103;DHT22;24847;48.218;16.414;2022-09-09T13:33:36;23.50;98.20
39103;DHT22;24847;48.218;16.414;2022-09-09T13:38:53;23.40;98.30
39103;DHT22;24847;48.218;16.414;2022-09-09T13:43:59;23.40;97.30
39103;DHT22;24847;48.218;16.414;2022-09-09T13:49:18;23.30;98.00
39103;DHT22;24847;48.218;16.414;2022-09-09T13:54:21;23.30;97.00
39103;DHT22;24847;48.218;16.414;2022-09-09T13:59:25;23.30;98.00
39103;DHT22;24847;48.218;16.414;2022-09-09T14:04:27;23.10;97.00
39103;DHT22;24847;48.218;16.414;2022-09-09T14:09:30;22.90;96.90
39103;DHT22;24847;48.218;16.414;2022-09-09T14:14:33;22.90;97.40
39103;DHT22;24847;48.218;16.414;2022-09-09T14:19:36;22.90;97.30
39103;DHT22;24847;48.218;16.414;2022-09-09T14:24:39;22.90;97.40
39103;DHT22;24847;48.218;16.414;2022-09-09T14:29:43;23.00;98.00
39103;DHT22;24847;48.218;16.414;2022-09-09T14:34:45;22.90;98.10
39103;DHT22;24847;48.218;16.414;2022-09-09T14:39:50;22.70;98.50
39103;DHT22;24847;48.218;16.414;2022-09-09T14:44:53;22.80;98.60
39103;DHT22;24847;48.218;16.414;2022-09-09T14:49:56;22.10;99.90
39103;DHT22;24847;48.218;16.414;2022-09-09T14:54:58;21.50;99.90
39103;DHT22;24847;48.218;16.414;2022-09-09T15:00:03;21.30;99.90
39103;DHT22;24847;48.218;16.414;2022-09-09T15:05:06;20.90;99.90
39103;DHT22;24847;48.218;16.414;2022-09-09T15:10:09;21.40;99.90
39103;DHT22;24847;48.218;16.414;2022-09-09T15:15:13;21.60;99.90
39103;DHT22;24847;48.218;16.414;2022-09-09T15:20:15;21.40;99.90
39103;DHT22;24847;48.218;16.414;2022-09-09T15:25:17;21.20;99.90
39103;DHT22;24847;48.218;16.414;2022-09-09T15:30:21;21.00;99.90
39103;DHT22;24847;48.218;16.414;2022-09-09T15:35:23;21.10;99.90
39103;DHT22;24847;48.218;16.414;2022-09-09T15:40:25;20.90;99.90
39103;DHT22;24847;48.218;16.414;2022-09-09T15:45:29;20.70;99.90
39103;DHT22;24847;48.218;16.414;2022-09-09T15:50:34;20.80;99.90
39103;DHT22;24847;48.218;16.414;2022-09-09T15:55:36;20.60;99.90
39103;DHT22;24847;48.218;16.414;2022-09-09T16:00:39;20.80;99.90
39103;DHT22;24847;48.218;16.414;2022-09-09T16:05:43;20.50;99.90
39103;DHT22;24847;48.218;16.414;2022-09-09T16:10:45;20.40;99.90
39103;DHT22;24847;48.218;16.414;2022-09-09T16:15:55;20.30;99.90
39103;DHT22;24847;48.218;16.414;2022-09-09T16:20:57;20.40;99.90
39103;DHT22;24847;48.218;16.414;2022-09-09T16:25:59;20.40;99.90
39103;DHT22;24847;48.218;16.414;2022-09-09T16:31:05;20.30;99.90
39103;DHT22;24847;48.218;16.414;2022-09-09T16:36:10;20.60;99.90
39103;DHT22;24847;48.218;16.414;2022-09-09T16:41:14;20.30;99.90
39103;DHT22;24847;48.218;16.414;2022-09-09T16:46:19;20.00;99.90
39103;DHT22;24847;48.218;16.414;2022-09-09T16:51:24;19.90;99.90
39103;DHT22;24847;48.218;16.414;2022-09-09T16:56:28;19.70;99.90
39103;DHT22;24847;48.218;16.414;2022-09-09T17:01:36;19.50;99.90
39103;DHT22;24847;48.218;16.414;2022-09-09T17:06:39;19.60;99.90
39103;DHT22;24847;48.218;16.414;2022-09-09T17:11:42;19.90;99.90
39103;DHT22;24847;48.218;16.414;2022-09-09T17:16:47;19.70;99.90
39103;DHT22;24847;48.218;16.414;2022-09-09T17:21:50;19.80;99.90
39103;DHT22;24847;48.218;16.414;2022-09-09T17:26:52;19.70;99.90
39103;DHT22;24847;48.218;16.414;2022-09-09T17:31:56;19.70;99.90
39103;DHT22;24847;48.218;16.414;2022-09-09T17:36:58;19.60;99.90
39103;DHT22;24847;48.218;16.414;2022-09-09T17:42:00;19.40;99.90
39103;DHT22;24847;48.218;16.414;2022-09-09T17:47:04;19.10;99.90
39103;DHT22;24847;48.218;16.414;2022-09-09T17:52:06;18.80;99.90
39103;DHT22;24847;48.218;16.414;2022-09-09T17:57:09;18.70;99.90
39103;DHT22;24847;48.218;16.414;2022-09-09T18:02:12;18.30;99.90
39103;DHT22;24847;48.218;16.414;2022-09-09T18:07:15;18.10;99.90
39103;DHT22;24847;48.218;16.414;2022-09-09T18:12:17;18.20;99.90
39103;DHT22;24847;48.218;16.414;2022-09-09T18:17:21;18.00;99.90
39103;DHT22;24847;48.218;16.414;2022-09-09T18:22:23;18.10;99.90
39103;DHT22;24847;48.218;16.414;2022-09-09T18:27:26;18.40;99.90
39103;DHT22;24847;48.218;16.414;2022-09-09T18:32:30;18.40;99.90
39103;DHT22;24847;48.218;16.414;2022-09-09T18:37:32;18.50;99.90
39103;DHT22;24847;48.218;16.414;2022-09-09T18:42:35;18.40;99.90
39103;DHT22;24847;48.218;16.414;2022-09-09T18:47:39;18.30;99.90
39103;DHT22;24847;48.218;16.414;2022-09-09T18:52:42;18.10;99.90
39103;DHT22;24847;48.218;16.414;2022-09-09T18:57:44;18.10;99.90
39103;DHT22;24847;48.218;16.414;2022-09-09T19:02:49;17.70;99.90
39103;DHT22;24847;48.218;16.414;2022-09-09T19:07:52;17.80;99.90
39103;DHT22;24847;48.218;16.414;2022-09-09T19:12:55;17.60;99.90
39103;DHT22;24847;48.218;16.414;2022-09-09T19:17:59;17.50;99.90
39103;DHT22;24847;48.218;16.414;2022-09-09T19:23:01;17.80;99.90
39103;DHT22;24847;48.218;16.414;2022-09-09T19:28:03;17.70;99.90
39103;DHT22;24847;48.218;16.414;2022-09-09T19:33:08;17.50;99.90
39103;DHT22;24847;48.218;16.414;2022-09-09T19:38:10;17.50;99.90
39103;DHT22;24847;48.218;16.414;2022-09-09T19:43:12;17.60;99.90
39103;DHT22;24847;48.218;16.414;2022-09-09T19:48:16;17.60;99.90
39103;DHT22;24847;48.218;16.414;2022-09-09T19:53:21;17.60;99.90
39103;DHT22;24847;48.218;16.414;2022-09-09T19:58:23;17.60;99.90
39103;DHT22;24847;48.218;16.414;2022-09-09T20:03:27;17.30;99.90
39103;DHT22;24847;48.218;16.414;2022-09-09T20:08:29;17.40;99.90
39103;DHT22;24847;48.218;16.414;2022-09-09T20:13:34;17.40;99.90
39103;DHT22;24847;48.218;16.414;2022-09-09T20:18:42;17.40;99.90
39103;DHT22;24847;48.218;16.414;2022-09-09T20:23:46;17.50;99.90
39103;DHT22;24847;48.218;16.414;2022-09-09T20:28:50;17.40;99.90
39103;DHT22;24847;48.218;16.414;2022-09-09T20:33:55;17.40;99.90
39103;DHT22;24847;48.218;16.414;2022-09-09T20:39:00;17.50;99.90
39103;DHT22;24847;48.218;16.414;2022-09-09T20:44:06;17.00;99.90
39103;DHT22;24847;48.218;16.414;2022-09-09T20:49:14;17.00;99.90
39103;DHT22;24847;48.218;16.414;2022-09-09T20:54:19;17.20;99.90
39103;DHT22;24847;48.218;16.414;2022-09-09T20:59:24;17.00;99.90
39103;DHT22;24847;48.218;16.414;2022-09-09T21:04:29;17.00;99.90
39103;DHT22;24847;48.218;16.414;2022-09-09T21:09:31;17.10;99.90
39103;DHT22;24847;48.218;16.414;2022-09-09T21:14:34;17.00;99.90
39103;DHT22;24847;48.218;16.414;2022-09-09T21:19:38;17.00;99.90
39103;DHT22;24847;48.218;16.414;2022-09-09T21:24:40;16.90;99.90
39103;DHT22;24847;48.218;16.414;2022-09-09T21:29:43;16.80;99.90
39103;DHT22;24847;48.218;16.414;2022-09-09T21:34:48;16.90;99.90
39103;DHT22;24847;48.218;16.414;2022-09-09T21:39:50;17.00;99.90
39103;DHT22;24847;48.218;16.414;2022-09-09T21:44:53;16.80;99.90
39103;DHT22;24847;48.218;16.414;2022-09-09T21:49:56;16.80;99.90
39103;DHT22;24847;48.218;16.414;2022-09-09T21:55:00;16.60;99.90
39103;DHT22;24847;48.218;16.414;2022-09-09T22:00:04;16.70;99.90
39103;DHT22;24847;48.218;16.414;2022-09-09T22:05:13;16.70;99.90
39103;DHT22;24847;48.218;16.414;2022-09-09T22:10:15;16.60;99.90
39103;DHT22;24847;48.218;16.414;2022-09-09T22:15:19;16.80;99.90
39103;DHT22;24847;48.218;16.414;2022-09-09T22:20:23;16.90;99.90
39103;DHT22;24847;48.218;16.414;2022-09-09T22:25:26;17.10;99.90
39103;DHT22;24847;48.218;16.414;2022-09-09T22:30:28;16.90;99.90
39103;DHT22;24847;48.218;16.414;2022-09-09T22:35:38;17.00;99.90
39103;DHT22;24847;48.218;16.414;2022-09-09T22:40:42;16.80;99.90
39103;DHT22;24847;48.218;16.414;2022-09-09T22:45:44;16.80;99.90
39103;DHT22;24847;48.218;16.414;2022-09-09T22:50:48;17.00;99.90
39103;DHT22;24847;48.218;16.414;2022-09-09T22:55:57;16.80;99.90
39103;DHT22;24847;48.218;16.414;2022-09-09T23:01:07;16.60;99.90
39103;DHT22;24847;48.218;16.414;2022-09-09T23:06:19;16.60;99.90
39103;DHT22;24847;48.218;16.414;2022-09-09T23:11:23;16.90;99.90
39103;DHT22;24847;48.218;16.414;2022-09-09T23:16:29;16.60;99.90
39103;DHT22;24847;48.218;16.414;2022-09-09T23:21:35;16.70;99.90
39103;DHT22;24847;48.218;16.414;2022-09-09T23:26:38;16.60;99.90
39103;DHT22;24847;48.218;16.414;2022-09-09T23:31:42;16.70;99.90
39103;DHT22;24847;48.218;16.414;2022-09-09T23:36:46;16.90;99.90
39103;DHT22;24847;48.218;16.414;2022-09-09T23:41:48;16.90;99.90
39103;DHT22;24847;48.218;16.414;2022-09-09T23:46:51;16.90;99.90
39103;DHT22;24847;48.218;16.414;2022-09-09T23:51:54;17.10;99.90
39103;DHT22;24847;48.218;16.414;2022-09-09T23:56:57;17.20;99.90
